sensor_id;sensor_type;location;lat;lon;timestamp;pressure;altitude;pressure_sealevel;temperature;humidity
45763;BME280;37512;52.408;13.356;2023-05-23T00:03:48;100664.91;;;17.70;64.02
45763;BME280;37512;52.408;13.356;2023-05-23T00:07:50;100655.41;;;17.57;65.59
45763;BME280;37512;52.408;13.356;2023-05-23T00:11:52;100660.31;;;17.46;66.36
45763;BME280;37512;52.408;13.356;2023-05-23T00:15:53;100656.94;;;17.65;65.14
45763;BME280;37512;52.408;13.356;2023-05-23T00:19:55;100644.78;;;17.79;64.05
45763;BME280;37512;52.408;13.356;2023-05-23T00:23:56;100646.44;;;17.69;64.84
45763;BME280;37512;52.408;13.356;2023-05-23T00:27:59;100642.63;;;17.49;66.50
45763;BME280;37512;52.408;13.356;2023-05-23T00:32:01;100632.59;;;17.03;68.26
45763;BME280;37512;52.408;13.356;2023-05-23T00:36:02;100641.28;;;17.19;69.41
45763;BME280;37512;52.408;13.356;2023-05-23T00:40:04;100627.09;;;17.37;67.09
45763;BME280;37512;52.408;13.356;2023-05-23T00:44:06;100628.47;;;17.18;68.06
45763;BME280;37512;52.408;13.356;2023-05-23T00:48:10;100627.81;;;17.00;69.91
45763;BME280;37512;52.408;13.356;2023-05-23T00:52:13;100623.34;;;17.06;69.02
45763;BME280;37512;52.408;13.356;2023-05-23T00:56:15;100614.13;;;17.05;69.48
45763;BME280;37512;52.408;13.356;2023-05-23T01:00:17;100609.75;;;17.04;69.92
45763;BME280;37512;52.408;13.356;2023-05-23T01:04:21;100608.13;;;16.40;71.69
45763;BME280;37512;52.408;13.356;2023-05-23T01:08:28;100603.78;;;16.21;73.11
45763;BME280;37512;52.408;13.356;2023-05-23T01:12:47;100602.16;;;16.31;73.39
45763;BME280;37512;52.408;13.356;2023-05-23T01:17:06;100597.56;;;16.66;73.76
45763;BME280;37512;52.408;13.356;2023-05-23T01:21:15;100600.31;;;16.77;73.43
45763;BME280;37512;52.408;13.356;2023-05-23T01:29:42;100609.97;;;16.65;72.71
45763;BME280;37512;52.408;13.356;2023-05-23T01:33:47;100607.94;;;16.69;72.41
45763;BME280;37512;52.408;13.356;2023-05-23T01:37:54;100598.72;;;16.79;70.89
45763;BME280;37512;52.408;13.356;2023-05-23T01:41:56;100589.47;;;16.86;71.18
45763;BME280;37512;52.408;13.356;2023-05-23T01:45:58;100579.06;;;16.86;71.72
45763;BME280;37512;52.408;13.356;2023-05-23T01:50:01;100577.81;;;16.87;72.03
45763;BME280;37512;52.408;13.356;2023-05-23T01:54:03;100579.47;;;16.78;71.51
45763;BME280;37512;52.408;13.356;2023-05-23T01:58:05;100575.66;;;16.50;70.65
45763;BME280;37512;52.408;13.356;2023-05-23T02:02:06;100592.78;;;16.63;72.31
45763;BME280;37512;52.408;13.356;2023-05-23T02:06:09;100596.66;;;16.87;69.81
45763;BME280;37512;52.408;13.356;2023-05-23T02:10:11;100605.84;;;16.95;69.03
45763;BME280;37512;52.408;13.356;2023-05-23T02:14:12;100600.63;;;16.89;71.23
45763;BME280;37512;52.408;13.356;2023-05-23T02:18:14;100582.19;;;16.96;74.50
45763;BME280;37512;52.408;13.356;2023-05-23T02:22:16;100586.28;;;16.84;79.09
45763;BME280;37512;52.408;13.356;2023-05-23T02:26:17;100580.13;;;16.37;77.36
45763;BME280;37512;52.408;13.356;2023-05-23T02:30:19;100577.63;;;16.57;78.87
45763;BME280;37512;52.408;13.356;2023-05-23T02:34:20;100581.31;;;16.43;78.17
45763;BME280;37512;52.408;13.356;2023-05-23T02:38:22;100574.81;;;16.57;79.99
45763;BME280;37512;52.408;13.356;2023-05-23T02:42:24;100575.53;;;16.68;77.57
45763;BME280;37512;52.408;13.356;2023-05-23T02:46:25;100576.44;;;16.50;79.82
45763;BME280;37512;52.408;13.356;2023-05-23T02:50:27;100572.03;;;16.53;78.74
45763;BME280;37512;52.408;13.356;2023-05-23T02:54:28;100572.66;;;16.82;79.59
45763;BME280;37512;52.408;13.356;2023-05-23T02:58:30;100569.06;;;16.78;77.75
45763;BME280;37512;52.408;13.356;2023-05-23T03:02:32;100572.31;;;16.73;80.01
45763;BME280;37512;52.408;13.356;2023-05-23T03:06:34;100581.31;;;16.39;83.12
45763;BME280;37512;52.408;13.356;2023-05-23T03:10:37;100577.94;;;15.92;83.72
45763;BME280;37512;52.408;13.356;2023-05-23T03:14:38;100590.63;;;16.18;83.07
45763;BME280;37512;52.408;13.356;2023-05-23T03:18:40;100597.66;;;16.48;82.98
45763;BME280;37512;52.408;13.356;2023-05-23T03:22:42;100597.19;;;16.60;79.73
45763;BME280;37512;52.408;13.356;2023-05-23T03:26:45;100583.13;;;16.71;83.45
45763;BME280;37512;52.408;13.356;2023-05-23T03:30:47;100569.66;;;16.44;85.16
45763;BME280;37512;52.408;13.356;2023-05-23T03:34:48;100569.22;;;16.57;85.24
45763;BME280;37512;52.408;13.356;2023-05-23T03:38:51;100556.78;;;16.58;88.21
45763;BME280;37512;52.408;13.356;2023-05-23T03:43:07;100554.81;;;16.55;90.50
45763;BME280;37512;52.408;13.356;2023-05-23T03:47:08;100528.81;;;16.54;89.41
45763;BME280;37512;52.408;13.356;2023-05-23T03:51:10;100538.06;;;16.47;93.18
45763;BME280;37512;52.408;13.356;2023-05-23T03:55:13;100530.44;;;16.51;92.29
45763;BME280;37512;52.408;13.356;2023-05-23T03:59:16;100525.97;;;15.84;94.17
45763;BME280;37512;52.408;13.356;2023-05-23T04:03:18;100539.63;;;15.57;94.08
45763;BME280;37512;52.408;13.356;2023-05-23T04:07:20;100569.97;;;15.65;92.25
45763;BME280;37512;52.408;13.356;2023-05-23T04:11:22;100584.72;;;15.95;91.86
45763;BME280;37512;52.408;13.356;2023-05-23T04:15:24;100573.00;;;16.21;86.32
45763;BME280;37512;52.408;13.356;2023-05-23T04:19:26;100569.00;;;16.19;92.36
45763;BME280;37512;52.408;13.356;2023-05-23T04:23:27;100569.75;;;16.34;90.38
45763;BME280;37512;52.408;13.356;2023-05-23T04:27:29;100562.91;;;16.38;95.08
45763;BME280;37512;52.408;13.356;2023-05-23T04:31:31;100561.63;;;16.54;92.23
45763;BME280;37512;52.408;13.356;2023-05-23T04:35:34;100560.50;;;16.40;94.49
45763;BME280;37512;52.408;13.356;2023-05-23T04:39:39;100560.91;;;16.42;96.71
45763;BME280;37512;52.408;13.356;2023-05-23T04:43:41;100561.69;;;16.43;100.00
45763;BME280;37512;52.408;13.356;2023-05-23T04:47:43;100557.81;;;16.19;100.00
45763;BME280;37512;52.408;13.356;2023-05-23T04:51:45;100562.69;;;16.00;100.00
45763;BME280;37512;52.408;13.356;2023-05-23T04:55:47;100572.13;;;16.35;100.00
45763;BME280;37512;52.408;13.356;2023-05-23T04:59:49;100564.16;;;16.30;100.00
45763;BME280;37512;52.408;13.356;2023-05-23T05:03:51;100564.19;;;16.23;100.00
45763;BME280;37512;52.408;13.356;2023-05-23T05:07:52;100560.59;;;16.19;100.00
45763;BME280;37512;52.408;13.356;2023-05-23T05:11:54;100558.19;;;16.24;100.00
45763;BME280;37512;52.408;13.356;2023-05-23T05:15:56;100550.59;;;16.21;100.00
45763;BME280;37512;52.408;13.356;2023-05-23T05:19:57;100553.84;;;16.05;100.00
45763;BME280;37512;52.408;13.356;2023-05-23T05:23:59;100554.69;;;16.06;100.00
45763;BME280;37512;52.408;13.356;2023-05-23T05:28:01;100556.22;;;16.18;100.00
45763;BME280;37512;52.408;13.356;2023-05-23T05:32:06;100565.06;;;16.05;100.00
45763;BME280;37512;52.408;13.356;2023-05-23T05:36:09;100578.25;;;16.08;100.00
45763;BME280;37512;52.408;13.356;2023-05-23T05:40:11;100570.69;;;16.02;100.00
45763;BME280;37512;52.408;13.356;2023-05-23T05:44:12;100580.34;;;15.90;100.00
45763;BME280;37512;52.408;13.356;2023-05-23T05:48:14;100578.69;;;16.03;100.00
45763;BME280;37512;52.408;13.356;2023-05-23T05:52:16;100580.34;;;15.83;100.00
45763;BME280;37512;52.408;13.356;2023-05-23T05:56:19;100565.50;;;16.00;100.00
45763;BME280;37512;52.408;13.356;2023-05-23T06:00:20;100566.28;;;16.04;100.00
45763;BME280;37512;52.408;13.356;2023-05-23T06:04:22;100571.44;;;16.13;100.00
45763;BME280;37512;52.408;13.356;2023-05-23T06:08:23;100562.19;;;16.27;100.00
45763;BME280;37512;52.408;13.356;2023-05-23T06:12:25;100564.59;;;16.25;100.00
45763;BME280;37512;52.408;13.356;2023-05-23T06:16:26;100559.28;;;16.41;100.00
45763;BME280;37512;52.408;13.356;2023-05-23T06:20:28;100551.97;;;16.62;100.00
45763;BME280;37512;52.408;13.356;2023-05-23T06:24:30;100551.41;;;16.85;100.00
45763;BME280;37512;52.408;13.356;2023-05-23T06:28:31;100567.47;;;16.77;100.00
45763;BME280;37512;52.408;13.356;2023-05-23T06:32:32;100570.59;;;16.90;100.00
45763;BME280;37512;52.408;13.356;2023-05-23T06:36:34;100573.38;;;16.97;100.00
45763;BME280;37512;52.408;13.356;2023-05-23T06:40:36;100568.50;;;17.01;100.00
45763;BME280;37512;52.408;13.356;2023-05-23T06:44:37;100570.81;;;17.13;100.00
45763;BME280;37512;52.408;13.356;2023-05-23T06:48:39;100574.34;;;17.21;98.54
45763;BME280;37512;52.408;13.356;2023-05-23T06:52:40;100577.38;;;17.45;95.30
45763;BME280;37512;52.408;13.356;2023-05-23T06:56:43;100574.72;;;17.27;96.35
45763;BME280;37512;52.408;13.356;2023-05-23T07:00:44;100569.59;;;17.56;88.07
45763;BME280;37512;52.408;13.356;2023-05-23T07:04:46;100574.22;;;17.77;84.36
45763;BME280;37512;52.408;13.356;2023-05-23T07:08:48;100568.91;;;18.21;82.74
45763;BME280;37512;52.408;13.356;2023-05-23T07:12:49;100569.78;;;18.14;80.33
45763;BME280;37512;52.408;13.356;2023-05-23T07:16:51;100577.88;;;18.08;78.97
45763;BME280;37512;52.408;13.356;2023-05-23T07:20:52;100570.91;;;17.86;82.11
45763;BME280;37512;52.408;13.356;2023-05-23T07:24:54;100573.69;;;17.89;79.39
45763;BME280;37512;52.408;13.356;2023-05-23T07:28:55;100567.69;;;18.52;80.98
45763;BME280;37512;52.408;13.356;2023-05-23T07:32:57;100570.88;;;18.54;77.86
45763;BME280;37512;52.408;13.356;2023-05-23T07:36:59;100569.16;;;18.60;79.91
45763;BME280;37512;52.408;13.356;2023-05-23T07:41:00;100564.25;;;18.95;76.31
45763;BME280;37512;52.408;13.356;2023-05-23T07:45:12;100572.28;;;18.66;73.92
45763;BME280;37512;52.408;13.356;2023-05-23T07:49:14;100572.22;;;18.70;74.07
45763;BME280;37512;52.408;13.356;2023-05-23T07:53:15;100571.22;;;18.84;77.23
45763;BME280;37512;52.408;13.356;2023-05-23T07:57:17;100580.63;;;19.00;76.13
45763;BME280;37512;52.408;13.356;2023-05-23T08:01:18;100583.31;;;18.84;78.65
45763;BME280;37512;52.408;13.356;2023-05-23T08:05:20;100593.44;;;18.78;79.82
45763;BME280;37512;52.408;13.356;2023-05-23T08:09:23;100585.97;;;19.18;79.98
45763;BME280;37512;52.408;13.356;2023-05-23T08:13:24;100582.63;;;19.47;81.51
45763;BME280;37512;52.408;13.356;2023-05-23T08:17:27;100583.81;;;19.26;83.29
45763;BME280;37512;52.408;13.356;2023-05-23T08:21:29;100586.66;;;18.72;90.01
45763;BME280;37512;52.408;13.356;2023-05-23T08:25:30;100593.31;;;18.85;91.93
45763;BME280;37512;52.408;13.356;2023-05-23T08:29:32;100593.13;;;19.23;92.51
45763;BME280;37512;52.408;13.356;2023-05-23T08:33:35;100600.44;;;18.93;91.01
45763;BME280;37512;52.408;13.356;2023-05-23T08:37:37;100602.16;;;19.58;88.47
45763;BME280;37512;52.408;13.356;2023-05-23T08:41:38;100620.38;;;19.26;89.37
45763;BME280;37512;52.408;13.356;2023-05-23T08:45:40;100618.84;;;19.45;90.49
45763;BME280;37512;52.408;13.356;2023-05-23T08:49:44;100610.28;;;19.52;91.94
45763;BME280;37512;52.408;13.356;2023-05-23T08:53:46;100618.06;;;20.12;90.22
45763;BME280;37512;52.408;13.356;2023-05-23T08:57:48;100625.16;;;19.76;91.27
45763;BME280;37512;52.408;13.356;2023-05-23T09:01:50;100635.00;;;20.48;88.91
45763;BME280;37512;52.408;13.356;2023-05-23T09:05:53;100641.59;;;20.21;90.02
45763;BME280;37512;52.408;13.356;2023-05-23T09:09:55;100642.59;;;20.31;92.29
45763;BME280;37512;52.408;13.356;2023-05-23T09:13:56;100650.09;;;19.78;96.08
45763;BME280;37512;52.408;13.356;2023-05-23T09:17:59;100649.13;;;19.61;99.64
45763;BME280;37512;52.408;13.356;2023-05-23T09:22:04;100656.19;;;19.96;100.00
45763;BME280;37512;52.408;13.356;2023-05-23T09:26:07;100642.19;;;20.89;92.37
45763;BME280;37512;52.408;13.356;2023-05-23T09:30:10;100652.19;;;21.10;91.37
45763;BME280;37512;52.408;13.356;2023-05-23T09:34:12;100649.59;;;20.83;93.12
45763;BME280;37512;52.408;13.356;2023-05-23T09:38:14;100661.97;;;19.38;100.00
45763;BME280;37512;52.408;13.356;2023-05-23T09:42:22;100658.41;;;19.61;100.00
45763;BME280;37512;52.408;13.356;2023-05-23T09:46:27;100663.84;;;19.49;100.00
45763;BME280;37512;52.408;13.356;2023-05-23T09:50:31;100665.91;;;18.94;100.00
45763;BME280;37512;52.408;13.356;2023-05-23T09:54:33;100659.88;;;19.46;100.00
45763;BME280;37512;52.408;13.356;2023-05-23T09:58:35;100662.06;;;19.08;100.00
45763;BME280;37512;52.408;13.356;2023-05-23T10:06:49;100657.19;;;19.12;100.00
45763;BME280;37512;52.408;13.356;2023-05-23T10:15:03;100660.00;;;19.39;100.00
45763;BME280;37512;52.408;13.356;2023-05-23T10:19:15;100668.75;;;18.59;100.00
45763;BME280;37512;52.408;13.356;2023-05-23T10:23:18;100673.72;;;18.48;100.00
45763;BME280;37512;52.408;13.356;2023-05-23T10:27:20;100670.97;;;18.72;100.00
45763;BME280;37512;52.408;13.356;2023-05-23T10:31:23;100674.09;;;18.81;100.00
45763;BME280;37512;52.408;13.356;2023-05-23T10:40:00;100686.66;;;18.04;100.00
45763;BME280;37512;52.408;13.356;2023-05-23T10:44:17;100686.34;;;17.95;100.00
45763;BME280;37512;52.408;13.356;2023-05-23T10:52:38;100679.66;;;17.82;100.00
45763;BME280;37512;52.408;13.356;2023-05-23T10:56:40;100707.41;;;17.17;100.00
45763;BME280;37512;52.408;13.356;2023-05-23T11:01:14;100691.59;;;17.93;100.00
45763;BME280;37512;52.408;13.356;2023-05-23T11:05:18;100705.13;;;16.97;100.00
45763;BME280;37512;52.408;13.356;2023-05-23T11:09:21;100704.47;;;17.38;100.00
45763;BME280;37512;52.408;13.356;2023-05-23T11:13:23;100704.66;;;17.65;100.00
45763;BME280;37512;52.408;13.356;2023-05-23T11:17:32;100698.00;;;17.45;100.00
45763;BME280;37512;52.408;13.356;2023-05-23T11:21:34;100702.63;;;17.66;100.00
45763;BME280;37512;52.408;13.356;2023-05-23T11:25:49;100702.56;;;17.21;100.00
45763;BME280;37512;52.408;13.356;2023-05-23T11:30:08;100705.88;;;17.05;100.00
45763;BME280;37512;52.408;13.356;2023-05-23T11:34:10;100709.25;;;16.67;100.00
45763;BME280;37512;52.408;13.356;2023-05-23T11:38:15;100707.28;;;16.61;100.00
45763;BME280;37512;52.408;13.356;2023-05-23T11:42:17;100707.53;;;16.95;100.00
45763;BME280;37512;52.408;13.356;2023-05-23T11:46:19;100708.31;;;16.99;100.00
45763;BME280;37512;52.408;13.356;2023-05-23T11:50:20;100710.47;;;16.59;100.00
45763;BME280;37512;52.408;13.356;2023-05-23T11:54:23;100710.59;;;17.15;100.00
45763;BME280;37512;52.408;13.356;2023-05-23T11:58:37;100713.94;;;16.96;100.00
45763;BME280;37512;52.408;13.356;2023-05-23T12:02:41;100724.84;;;17.46;100.00
45763;BME280;37512;52.408;13.356;2023-05-23T12:06:46;100726.88;;;16.68;100.00
45763;BME280;37512;52.408;13.356;2023-05-23T12:10:55;100723.28;;;16.60;100.00
45763;BME280;37512;52.408;13.356;2023-05-23T12:14:57;100720.81;;;16.73;100.00
45763;BME280;37512;52.408;13.356;2023-05-23T12:19:04;100716.41;;;16.86;100.00
45763;BME280;37512;52.408;13.356;2023-05-23T12:23:07;100723.63;;;16.80;100.00
45763;BME280;37512;52.408;13.356;2023-05-23T12:27:08;100719.09;;;17.04;100.00
45763;BME280;37512;52.408;13.356;2023-05-23T12:31:18;100729.72;;;17.34;100.00
45763;BME280;37512;52.408;13.356;2023-05-23T12:35:19;100726.06;;;17.45;100.00
45763;BME280;37512;52.408;13.356;2023-05-23T12:39:27;100732.28;;;17.11;100.00
45763;BME280;37512;52.408;13.356;2023-05-23T12:43:29;100732.38;;;16.89;100.00
45763;BME280;37512;52.408;13.356;2023-05-23T12:47:30;100724.16;;;17.27;100.00
45763;BME280;37512;52.408;13.356;2023-05-23T12:51:32;100726.94;;;17.31;100.00
45763;BME280;37512;52.408;13.356;2023-05-23T12:55:33;100726.38;;;17.54;100.00
45763;BME280;37512;52.408;13.356;2023-05-23T12:59:35;100723.75;;;17.85;100.00
45763;BME280;37512;52.408;13.356;2023-05-23T13:03:36;100738.97;;;17.87;100.00
45763;BME280;37512;52.408;13.356;2023-05-23T13:07:38;100727.66;;;17.94;100.00
45763;BME280;37512;52.408;13.356;2023-05-23T13:11:40;100730.78;;;17.55;100.00
45763;BME280;37512;52.408;13.356;2023-05-23T13:15:41;100731.94;;;17.61;100.00
45763;BME280;37512;52.408;13.356;2023-05-23T13:19:44;100726.81;;;17.49;100.00
45763;BME280;37512;52.408;13.356;2023-05-23T13:23:45;100736.28;;;17.69;100.00
45763;BME280;37512;52.408;13.356;2023-05-23T13:27:47;100741.81;;;17.84;100.00
45763;BME280;37512;52.408;13.356;2023-05-23T13:31:49;100734.50;;;17.38;100.00
45763;BME280;37512;52.408;13.356;2023-05-23T13:35:51;100738.88;;;17.42;100.00
45763;BME280;37512;52.408;13.356;2023-05-23T13:39:54;100751.81;;;17.85;100.00
45763;BME280;37512;52.408;13.356;2023-05-23T13:43:55;100752.00;;;17.56;100.00
45763;BME280;37512;52.408;13.356;2023-05-23T13:47:57;100768.91;;;16.57;100.00
45763;BME280;37512;52.408;13.356;2023-05-23T13:51:58;100770.63;;;16.15;100.00
45763;BME280;37512;52.408;13.356;2023-05-23T13:56:00;100776.25;;;16.08;100.00
45763;BME280;37512;52.408;13.356;2023-05-23T14:00:02;100773.78;;;16.42;100.00
45763;BME280;37512;52.408;13.356;2023-05-23T14:04:03;100776.88;;;16.77;100.00
45763;BME280;37512;52.408;13.356;2023-05-23T14:08:07;100776.09;;;16.72;100.00
45763;BME280;37512;52.408;13.356;2023-05-23T14:12:09;100786.03;;;16.91;100.00
45763;BME280;37512;52.408;13.356;2023-05-23T14:16:11;100767.69;;;16.69;100.00
45763;BME280;37512;52.408;13.356;2023-05-23T14:20:12;100772.94;;;16.52;100.00
45763;BME280;37512;52.408;13.356;2023-05-23T14:24:14;100776.50;;;16.64;100.00
45763;BME280;37512;52.408;13.356;2023-05-23T14:28:15;100784.22;;;16.20;100.00
45763;BME280;37512;52.408;13.356;2023-05-23T14:32:17;100795.44;;;16.02;100.00
45763;BME280;37512;52.408;13.356;2023-05-23T14:36:19;100797.03;;;16.00;100.00
45763;BME280;37512;52.408;13.356;2023-05-23T14:40:20;100795.44;;;15.99;100.00
45763;BME280;37512;52.408;13.356;2023-05-23T14:44:22;100800.25;;;15.87;100.00
45763;BME280;37512;52.408;13.356;2023-05-23T14:48:23;100798.56;;;15.68;100.00
45763;BME280;37512;52.408;13.356;2023-05-23T14:52:25;100808.19;;;15.60;100.00
45763;BME280;37512;52.408;13.356;2023-05-23T14:56:27;100806.16;;;15.46;100.00
45763;BME280;37512;52.408;13.356;2023-05-23T15:00:28;100824.88;;;15.32;100.00
45763;BME280;37512;52.408;13.356;2023-05-23T15:04:30;100828.94;;;15.59;100.00
45763;BME280;37512;52.408;13.356;2023-05-23T15:08:32;100834.81;;;15.18;100.00
45763;BME280;37512;52.408;13.356;2023-05-23T15:12:34;100838.94;;;15.53;100.00
45763;BME280;37512;52.408;13.356;2023-05-23T15:16:35;100858.91;;;15.52;100.00
45763;BME280;37512;52.408;13.356;2023-05-23T15:20:37;100861.31;;;14.62;100.00
45763;BME280;37512;52.408;13.356;2023-05-23T15:24:39;100871.28;;;14.63;100.00
45763;BME280;37512;52.408;13.356;2023-05-23T15:28:41;100874.19;;;14.81;100.00
45763;BME280;37512;52.408;13.356;2023-05-23T15:32:42;100884.50;;;14.70;100.00
45763;BME280;37512;52.408;13.356;2023-05-23T15:36:44;100884.41;;;14.59;100.00
45763;BME280;37512;52.408;13.356;2023-05-23T15:40:45;100883.50;;;14.48;100.00
45763;BME280;37512;52.408;13.356;2023-05-23T15:44:49;100899.19;;;14.15;100.00
45763;BME280;37512;52.408;13.356;2023-05-23T15:48:51;100905.41;;;13.97;100.00
45763;BME280;37512;52.408;13.356;2023-05-23T15:52:52;100897.81;;;13.94;100.00
45763;BME280;37512;52.408;13.356;2023-05-23T15:56:54;100906.25;;;14.01;100.00
45763;BME280;37512;52.408;13.356;2023-05-23T16:00:55;100892.59;;;13.89;100.00
45763;BME280;37512;52.408;13.356;2023-05-23T16:04:57;100899.88;;;14.05;100.00
45763;BME280;37512;52.408;13.356;2023-05-23T16:08:59;100897.69;;;13.84;100.00
45763;BME280;37512;52.408;13.356;2023-05-23T16:13:00;100907.69;;;13.88;100.00
45763;BME280;37512;52.408;13.356;2023-05-23T16:17:02;100900.03;;;13.78;100.00
45763;BME280;37512;52.408;13.356;2023-05-23T16:21:06;100909.00;;;13.60;100.00
45763;BME280;37512;52.408;13.356;2023-05-23T16:25:09;100908.53;;;13.25;100.00
45763;BME280;37512;52.408;13.356;2023-05-23T16:29:10;100915.56;;;13.11;100.00
45763;BME280;37512;52.408;13.356;2023-05-23T16:33:12;100917.06;;;13.35;100.00
45763;BME280;37512;52.408;13.356;2023-05-23T16:37:14;100918.75;;;13.13;100.00
45763;BME280;37512;52.408;13.356;2023-05-23T16:41:15;100930.94;;;13.32;100.00
45763;BME280;37512;52.408;13.356;2023-05-23T16:45:17;100934.09;;;13.00;100.00
45763;BME280;37512;52.408;13.356;2023-05-23T16:49:19;100945.00;;;13.12;100.00
45763;BME280;37512;52.408;13.356;2023-05-23T16:53:20;100958.50;;;13.10;100.00
45763;BME280;37512;52.408;13.356;2023-05-23T16:57:22;100953.00;;;13.14;100.00
45763;BME280;37512;52.408;13.356;2023-05-23T17:01:23;100955.91;;;13.25;100.00
45763;BME280;37512;52.408;13.356;2023-05-23T17:05:25;100969.03;;;12.94;100.00
45763;BME280;37512;52.408;13.356;2023-05-23T17:09:27;100968.81;;;12.80;100.00
45763;BME280;37512;52.408;13.356;2023-05-23T17:13:30;100975.66;;;12.86;100.00
45763;BME280;37512;52.408;13.356;2023-05-23T17:17:31;100978.34;;;12.79;100.00
45763;BME280;37512;52.408;13.356;2023-05-23T17:21:33;100978.97;;;12.95;100.00
45763;BME280;37512;52.408;13.356;2023-05-23T17:25:35;100985.69;;;12.64;100.00
45763;BME280;37512;52.408;13.356;2023-05-23T17:29:37;101003.09;;;12.61;100.00
45763;BME280;37512;52.408;13.356;2023-05-23T17:33:38;101013.38;;;12.56;100.00
45763;BME280;37512;52.408;13.356;2023-05-23T17:37:40;101017.22;;;12.48;100.00
45763;BME280;37512;52.408;13.356;2023-05-23T17:41:44;101023.03;;;12.63;100.00
45763;BME280;37512;52.408;13.356;2023-05-23T17:45:46;101021.00;;;12.60;100.00
45763;BME280;37512;52.408;13.356;2023-05-23T17:49:48;101023.59;;;12.49;100.00
45763;BME280;37512;52.408;13.356;2023-05-23T17:53:49;101026.31;;;12.45;100.00
45763;BME280;37512;52.408;13.356;2023-05-23T17:57:54;101023.78;;;12.37;100.00
45763;BME280;37512;52.408;13.356;2023-05-23T18:01:55;101029.34;;;12.60;100.00
45763;BME280;37512;52.408;13.356;2023-05-23T18:05:57;101026.72;;;12.47;100.00
45763;BME280;37512;52.408;13.356;2023-05-23T18:09:58;101029.72;;;12.35;100.00
45763;BME280;37512;52.408;13.356;2023-05-23T18:14:01;101022.78;;;12.25;100.00
45763;BME280;37512;52.408;13.356;2023-05-23T18:18:03;101035.16;;;12.28;100.00
45763;BME280;37512;52.408;13.356;2023-05-23T18:22:04;101034.97;;;12.40;100.00
45763;BME280;37512;52.408;13.356;2023-05-23T18:26:06;101049.25;;;12.39;100.00
45763;BME280;37512;52.408;13.356;2023-05-23T18:30:09;101047.28;;;12.39;100.00
45763;BME280;37512;52.408;13.356;2023-05-23T18:34:11;101060.72;;;12.14;100.00
45763;BME280;37512;52.408;13.356;2023-05-23T18:38:12;101064.84;;;12.43;100.00
45763;BME280;37512;52.408;13.356;2023-05-23T18:42:14;101072.56;;;12.30;100.00
45763;BME280;37512;52.408;13.356;2023-05-23T18:46:15;101071.63;;;12.23;100.00
45763;BME280;37512;52.408;13.356;2023-05-23T18:50:17;101083.13;;;12.41;100.00
45763;BME280;37512;52.408;13.356;2023-05-23T18:54:19;101090.41;;;12.49;100.00
45763;BME280;37512;52.408;13.356;2023-05-23T18:58:20;101100.78;;;12.52;100.00
45763;BME280;37512;52.408;13.356;2023-05-23T19:02:22;101106.13;;;12.61;100.00
45763;BME280;37512;52.408;13.356;2023-05-23T19:06:27;101102.47;;;12.56;100.00
45763;BME280;37512;52.408;13.356;2023-05-23T19:10:29;101103.09;;;12.46;100.00
45763;BME280;37512;52.408;13.356;2023-05-23T19:14:30;101110.94;;;12.21;100.00
45763;BME280;37512;52.408;13.356;2023-05-23T19:18:32;101120.59;;;12.47;100.00
45763;BME280;37512;52.408;13.356;2023-05-23T19:22:33;101131.00;;;12.50;100.00
45763;BME280;37512;52.408;13.356;2023-05-23T19:26:50;101127.78;;;12.48;100.00
45763;BME280;37512;52.408;13.356;2023-05-23T19:30:52;101133.66;;;12.23;100.00
45763;BME280;37512;52.408;13.356;2023-05-23T19:34:53;101140.28;;;12.38;100.00
45763;BME280;37512;52.408;13.356;2023-05-23T19:38:55;101144.72;;;12.39;100.00
45763;BME280;37512;52.408;13.356;2023-05-23T19:42:57;101155.53;;;12.44;100.00
45763;BME280;37512;52.408;13.356;2023-05-23T19:46:58;101154.28;;;12.22;100.00
45763;BME280;37512;52.408;13.356;2023-05-23T19:51:00;101154.44;;;12.10;100.00
45763;BME280;37512;52.408;13.356;2023-05-23T19:55:01;101166.97;;;12.20;100.00
45763;BME280;37512;52.408;13.356;2023-05-23T19:59:04;101170.84;;;12.15;100.00
45763;BME280;37512;52.408;13.356;2023-05-23T20:03:05;101175.50;;;12.11;100.00
45763;BME280;37512;52.408;13.356;2023-05-23T20:07:07;101174.50;;;12.00;100.00
45763;BME280;37512;52.408;13.356;2023-05-23T20:11:09;101179.34;;;12.22;100.00
45763;BME280;37512;52.408;13.356;2023-05-23T20:15:11;101187.59;;;11.83;100.00
45763;BME280;37512;52.408;13.356;2023-05-23T20:19:12;101184.78;;;11.99;100.00
45763;BME280;37512;52.408;13.356;2023-05-23T20:23:15;101181.50;;;11.93;100.00
45763;BME280;37512;52.408;13.356;2023-05-23T20:27:16;101199.78;;;11.95;100.00
45763;BME280;37512;52.408;13.356;2023-05-23T20:31:18;101201.00;;;11.62;100.00
45763;BME280;37512;52.408;13.356;2023-05-23T20:35:20;101201.50;;;11.67;100.00
45763;BME280;37512;52.408;13.356;2023-05-23T20:39:22;101207.91;;;11.36;100.00
45763;BME280;37512;52.408;13.356;2023-05-23T20:43:26;101214.28;;;11.37;100.00
45763;BME280;37512;52.408;13.356;2023-05-23T20:47:29;101223.75;;;11.51;100.00
45763;BME280;37512;52.408;13.356;2023-05-23T20:51:30;101210.59;;;11.48;100.00
45763;BME280;37512;52.408;13.356;2023-05-23T20:55:32;101216.69;;;11.70;100.00
45763;BME280;37512;52.408;13.356;2023-05-23T20:59:38;101228.34;;;11.60;100.00
45763;BME280;37512;52.408;13.356;2023-05-23T21:03:39;101218.66;;;11.22;100.00